createdAt,value
2023-02-04T00:00:54.751Z,7.30
2023-02-04T00:05:56.270Z,9.30
2023-02-04T00:10:57.891Z,8.40
2023-02-04T00:15:59.444Z,9.00
2023-02-04T00:21:01.011Z,6.50
2023-02-04T00:26:02.557Z,6.70
2023-02-04T00:31:04.199Z,7.10
2023-02-04T00:36:06.576Z,7.10
2023-02-04T00:41:08.053Z,8.80
2023-02-04T00:46:09.614Z,7.60
2023-02-04T00:51:11.332Z,7.90
2023-02-04T00:56:12.797Z,6.40
2023-02-04T01:01:14.432Z,7.20
2023-02-04T01:06:16.068Z,6.30
2023-02-04T01:11:18.404Z,10.10
2023-02-04T01:16:20.436Z,6.60
2023-02-04T01:21:24.631Z,10.60
2023-02-04T01:26:26.153Z,10.50
2023-02-04T01:31:28.445Z,8.00
2023-02-04T01:36:30.053Z,7.50
2023-02-04T01:41:31.581Z,7.20
2023-02-04T01:46:37.536Z,7.60
2023-02-04T01:51:39.861Z,6.80
2023-02-04T01:56:46.344Z,6.40
2023-02-04T02:01:50.540Z,3.90
2023-02-04T02:06:55.477Z,6.00
2023-02-04T02:11:57.807Z,6.70
2023-02-04T02:16:59.521Z,6.50
2023-02-04T02:22:32.494Z,4.80
2023-02-04T02:27:33.985Z,5.50
2023-02-04T02:32:36.842Z,7.50
2023-02-04T02:37:38.577Z,7.50
2023-02-04T02:42:40.997Z,7.50
2023-02-04T02:47:42.863Z,9.40
2023-02-04T02:52:44.377Z,5.70
2023-02-04T02:57:47.413Z,5.50
2023-02-04T03:03:05.439Z,5.50
2023-02-04T03:08:07.605Z,6.20
2023-02-04T03:13:10.685Z,7.90
2023-02-04T03:18:15.316Z,5.80
2023-02-04T03:28:18.621Z,5.40
2023-02-04T03:33:20.252Z,5.20
2023-02-04T03:38:21.737Z,5.10
2023-02-04T03:43:23.275Z,5.00
2023-02-04T03:48:24.837Z,6.60
2023-02-04T03:53:26.314Z,4.70
2023-02-04T03:58:27.793Z,7.10
2023-02-04T04:03:29.471Z,6.60
2023-02-04T04:08:31.186Z,7.10
2023-02-04T04:13:32.684Z,4.40
2023-02-04T04:18:34.676Z,8.30
2023-02-04T04:23:36.256Z,6.60
2023-02-04T04:28:37.919Z,9.00
2023-02-04T04:33:39.591Z,5.60
2023-02-04T04:38:41.061Z,3.90
2023-02-04T04:43:42.513Z,6.40
2023-02-04T04:48:43.980Z,4.80
2023-02-04T04:53:45.436Z,6.50
2023-02-04T04:58:46.953Z,5.20
2023-02-04T05:03:48.959Z,7.70
2023-02-04T05:08:50.674Z,5.70
2023-02-04T05:13:52.486Z,5.80
2023-02-04T05:18:54.013Z,3.30
2023-02-04T05:23:55.496Z,5.60
2023-02-04T05:28:57.133Z,7.00
2023-02-04T05:33:58.646Z,4.40
2023-02-04T05:39:00.192Z,5.20
2023-02-04T05:44:01.699Z,5.40
2023-02-04T05:49:03.254Z,6.80
2023-02-04T05:54:04.867Z,6.30
2023-02-04T05:59:06.405Z,5.80
2023-02-04T06:04:08.027Z,5.60
2023-02-04T06:09:10.992Z,11.00
2023-02-04T06:14:12.624Z,9.30
2023-02-04T06:19:14.370Z,4.90
2023-02-04T06:24:16.018Z,6.60
2023-02-04T06:29:17.881Z,9.70
2023-02-04T06:34:19.436Z,6.00
2023-02-04T06:39:21.238Z,8.00
2023-02-04T06:44:22.770Z,5.10
2023-02-04T06:49:25.343Z,4.00
2023-02-04T06:54:26.846Z,5.30
2023-02-04T06:59:33.140Z,6.90
2023-02-04T07:04:35.416Z,5.70
2023-02-04T07:09:37.573Z,4.20
2023-02-04T07:14:39.085Z,5.00
2023-02-04T07:19:40.560Z,4.90
2023-02-04T07:24:42.066Z,6.70
2023-02-04T07:29:43.564Z,7.30
2023-02-04T07:34:45.064Z,5.10
2023-02-04T07:39:46.593Z,5.80
2023-02-04T07:44:48.094Z,5.90
2023-02-04T07:49:49.644Z,6.10
2023-02-04T07:54:52.481Z,6.70
2023-02-04T07:59:53.961Z,5.50
2023-02-04T08:04:55.468Z,8.30
2023-02-04T08:09:56.932Z,5.60
2023-02-04T08:14:58.939Z,5.90
2023-02-04T08:20:00.714Z,4.60
2023-02-04T08:25:03.692Z,4.10
2023-02-04T08:30:06.428Z,3.50
2023-02-04T08:35:08.794Z,5.00
2023-02-04T08:40:11.188Z,4.20
2023-02-04T08:45:12.777Z,3.40
2023-02-04T08:50:14.466Z,3.90
2023-02-04T08:55:16.088Z,4.30
2023-02-04T09:00:18.103Z,3.60
2023-02-04T09:05:19.625Z,4.00
2023-02-04T09:10:21.128Z,8.20
2023-02-04T09:15:25.994Z,3.70
2023-02-04T09:20:29.517Z,4.10
2023-02-04T09:25:31.293Z,4.00
2023-02-04T09:30:33.705Z,2.80
2023-02-04T09:35:35.658Z,5.20
2023-02-04T09:40:42.889Z,4.60
2023-02-04T09:45:44.596Z,3.20
2023-02-04T09:50:46.231Z,2.90
2023-02-04T09:55:49.600Z,4.20
2023-02-04T10:01:01.368Z,4.40
2023-02-04T10:06:03.151Z,4.30
2023-02-04T10:11:05.293Z,3.90
2023-02-04T10:16:16.356Z,3.00
2023-02-04T10:21:28.605Z,2.40
2023-02-04T10:26:31.948Z,2.80
2023-02-04T10:31:40.633Z,2.80
2023-02-04T10:36:47.983Z,2.20
2023-02-04T10:41:57.490Z,3.50
2023-02-04T10:47:24.115Z,4.10
2023-02-04T10:52:35.915Z,3.30
2023-02-04T10:57:40.759Z,2.70
2023-02-04T11:03:05.326Z,3.30
2023-02-04T11:08:25.959Z,4.00
2023-02-04T11:13:41.105Z,2.60
2023-02-04T11:19:02.261Z,2.20
2023-02-04T11:24:25.540Z,4.30
2023-02-04T11:29:38.346Z,2.20
2023-02-04T11:34:49.447Z,3.90
2023-02-04T11:39:51.207Z,4.00
2023-02-04T11:44:58.562Z,5.00
2023-02-04T11:50:04.396Z,3.40
2023-02-04T11:55:06.324Z,4.80
2023-02-04T12:00:17.987Z,3.90
2023-02-04T12:05:20.809Z,6.20
2023-02-04T12:10:26.368Z,3.10
2023-02-04T12:15:36.042Z,4.10
2023-02-04T12:20:38.929Z,3.90
2023-02-04T12:25:40.525Z,3.20
2023-02-04T12:30:42.075Z,2.70
2023-02-04T12:35:43.651Z,3.40
2023-02-04T12:40:45.686Z,3.60
2023-02-04T12:45:49.916Z,6.00
2023-02-04T12:55:52.986Z,4.90
2023-02-04T13:00:54.633Z,4.30
2023-02-04T13:05:56.414Z,3.50
2023-02-04T13:10:57.976Z,2.60
2023-02-04T13:15:59.536Z,4.10
2023-02-04T13:21:01.760Z,3.50
2023-02-04T13:26:03.488Z,4.90
2023-02-04T13:31:05.172Z,8.70
2023-02-04T13:36:07.209Z,4.20
2023-02-04T13:41:08.839Z,6.00
2023-02-04T13:46:10.517Z,2.80
2023-02-04T13:51:12.211Z,2.60
2023-02-04T13:56:13.953Z,4.80
2023-02-04T14:01:15.786Z,2.80
2023-02-04T14:06:20.801Z,3.80
2023-02-04T14:11:22.387Z,4.90
2023-02-04T14:16:24.001Z,6.00
2023-02-04T14:21:25.580Z,2.90
2023-02-04T14:26:27.121Z,3.00
2023-02-04T14:31:28.658Z,2.40
2023-02-04T14:36:30.235Z,2.40
2023-02-04T14:41:32.331Z,3.20
2023-02-04T14:46:33.877Z,4.90
2023-02-04T14:51:35.412Z,3.00
2023-02-04T14:56:37.199Z,2.40
2023-02-04T15:01:38.808Z,3.00
2023-02-04T15:06:40.468Z,4.70
2023-02-04T15:11:42.143Z,2.50
2023-02-04T15:16:48.030Z,3.20
2023-02-04T15:21:49.913Z,3.20
2023-02-04T15:26:51.389Z,3.70
2023-02-04T15:31:52.978Z,4.30
2023-02-04T15:36:54.574Z,3.10
2023-02-04T15:41:56.144Z,2.10
2023-02-04T15:46:57.617Z,3.20
2023-02-04T15:51:59.251Z,4.20
2023-02-04T15:57:01.238Z,4.00
2023-02-04T16:02:02.818Z,3.60
2023-02-04T16:07:08.433Z,3.00
2023-02-04T16:12:10.228Z,3.80
2023-02-04T16:17:11.795Z,4.20
2023-02-04T16:22:13.422Z,3.70
2023-02-04T16:27:15.280Z,5.10
2023-02-04T16:32:16.842Z,3.00
2023-02-04T16:37:18.716Z,4.50
2023-02-04T16:42:20.260Z,5.60
2023-02-04T16:47:21.837Z,3.50
2023-02-04T16:52:23.321Z,4.00
2023-02-04T16:57:25.025Z,4.70
2023-02-04T17:02:26.892Z,5.10
2023-02-04T17:07:28.394Z,3.80
2023-02-04T17:12:29.880Z,4.10
2023-02-04T17:17:31.432Z,4.70
2023-02-04T17:22:32.996Z,6.70
2023-02-04T17:27:34.495Z,6.40
2023-02-04T17:32:36.603Z,6.70
2023-02-04T17:37:38.349Z,5.90
2023-02-04T17:42:40.583Z,4.50
2023-02-04T17:47:42.113Z,4.50
2023-02-04T17:52:43.598Z,4.70
2023-02-04T17:57:45.171Z,4.70
2023-02-04T18:02:49.092Z,5.60
2023-02-04T18:07:56.249Z,3.30
2023-02-04T18:13:07.082Z,4.20
2023-02-04T18:18:19.585Z,4.40
2023-02-04T18:23:21.096Z,4.60
2023-02-04T18:28:22.633Z,4.80
2023-02-04T18:33:26.813Z,5.20
2023-02-04T18:38:37.246Z,7.50
2023-02-04T18:43:40.476Z,4.70
2023-02-04T18:49:03.669Z,6.50
2023-02-04T18:54:27.679Z,5.10
2023-02-04T18:59:29.180Z,4.80
2023-02-04T19:04:33.428Z,7.80
2023-02-04T19:09:36.783Z,6.30
2023-02-04T19:14:41.206Z,6.00
2023-02-04T19:20:05.775Z,4.30
2023-02-04T19:25:27.996Z,3.70
2023-02-04T19:30:29.794Z,7.70
2023-02-04T19:35:45.106Z,5.10
2023-02-04T19:40:50.315Z,4.10
2023-02-04T19:45:52.027Z,4.00
2023-02-04T19:50:53.975Z,5.50
2023-02-04T19:55:55.970Z,4.20
2023-02-04T20:01:06.030Z,3.90
2023-02-04T20:06:10.367Z,6.20
2023-02-04T20:11:17.838Z,6.10
2023-02-04T20:16:41.146Z,5.60
2023-02-04T20:22:04.712Z,7.20
2023-02-04T20:27:28.152Z,4.80
2023-02-04T20:32:30.245Z,6.30
2023-02-04T20:37:32.484Z,4.20
2023-02-04T20:42:43.652Z,5.40
2023-02-04T20:47:45.734Z,8.80
2023-02-04T20:52:51.160Z,12.10
2023-02-04T20:58:20.880Z,11.20
2023-02-04T21:03:36.853Z,8.10
2023-02-04T21:08:45.047Z,7.80
2023-02-04T21:13:48.278Z,13.40
2023-02-04T21:18:50.850Z,7.40
2023-02-04T21:23:52.539Z,9.80
2023-02-04T21:28:54.181Z,10.20
2023-02-04T21:33:56.980Z,8.50
2023-02-04T21:38:58.591Z,6.40
2023-02-04T21:44:00.120Z,9.00
2023-02-04T21:49:01.675Z,6.10
2023-02-04T21:54:05.254Z,9.10
2023-02-04T21:59:06.895Z,11.30
2023-02-04T22:04:08.350Z,12.60
2023-02-04T22:09:09.882Z,10.70
2023-02-04T22:14:29.873Z,10.20
2023-02-04T22:19:31.417Z,14.80
2023-02-04T22:24:33.056Z,12.70
2023-02-04T22:29:34.642Z,7.90
2023-02-04T22:34:36.504Z,8.10
2023-02-04T22:39:38.056Z,25.90
2023-02-04T22:44:39.588Z,23.30
2023-02-04T22:49:41.169Z,15.00
2023-02-04T22:54:43.499Z,11.20
2023-02-04T22:59:45.280Z,14.50
2023-02-04T23:04:46.780Z,6.00
2023-02-04T23:09:48.289Z,13.40
2023-02-04T23:14:49.819Z,11.40
2023-02-04T23:19:51.337Z,17.60
2023-02-04T23:24:53.066Z,15.10
2023-02-04T23:29:54.536Z,9.00
2023-02-04T23:34:56.038Z,7.60
2023-02-04T23:39:57.895Z,8.30
2023-02-04T23:44:59.441Z,5.10
2023-02-04T23:50:00.942Z,7.40
2023-02-04T23:55:02.422Z,11.80
